<?xml version="1.0" encoding="UTF-8"?>
<gpx version="1.1" creator="Endomondo.com" xsi:schemaLocation="http://www.topografix.com/GPX/1/1 http://www.topografix.com/GPX/1/1/gpx.xsd http://www.garmin.com/xmlschemas/GpxExtensions/v3 http://www.garmin.com/xmlschemas/GpxExtensionsv3.xsd http://www.garmin.com/xmlschemas/TrackPointExtension/v1 http://www.garmin.com/xmlschemas/TrackPointExtensionv1.xsd" xmlns="http://www.topografix.com/GPX/1/1" xmlns:gpxtpx="http://www.garmin.com/xmlschemas/TrackPointExtension/v1" xmlns:gpxx="http://www.garmin.com/xmlschemas/GpxExtensions/v3" xmlns:xsi="http://www.w3.org/2001/XMLSchema-instance">
 <metadata>
 <author>
 <name>Jan-Philippe Schilt</name>
 <email id="jp.schilt" domain="gmail.com"/>
 </author>
 <link href="http://www.endomondo.com">
 <text>Endomondo</text>
 </link>
 <time>2014-08-25T09:54:08Z</time>
 </metadata>
 <trk>
 <src>http://www.endomondo.com/</src>
 <link href="https://www.endomondo.com/workouts/396317523/1055794">
 <text>endomondo</text>
 </link>
 <type>CYCLING_TRANSPORTATION</type>
 <trkseg>
 <trkpt lat="51.221354" lon="6.9013">
 <time>2014-08-23T23:41:02Z</time>
 </trkpt>
 <trkpt lat="51.221354" lon="6.9013">
 <ele>95.0</ele>
 <time>2014-08-23T23:41:04Z</time>
 </trkpt>
 <trkpt lat="51.221557" lon="6.90104">
 <ele>96.0</ele>
 <time>2014-08-23T23:41:08Z</time>
 </trkpt>
 <trkpt lat="51.221909" lon="6.900647">
 <ele>97.0</ele>
 <time>2014-08-23T23:41:13Z</time>
 </trkpt>
 <trkpt lat="51.222309" lon="6.900147">
 <ele>91.0</ele>
 <time>2014-08-23T23:41:20Z</time>
 </trkpt>
 <trkpt lat="51.222652" lon="6.899889">
 <ele>94.0</ele>
 <time>2014-08-23T23:41:25Z</time>
 </trkpt>
 <trkpt lat="51.223031" lon="6.89962">
 <ele>96.0</ele>
 <time>2014-08-23T23:41:31Z</time>
 </trkpt>
 <trkpt lat="51.223515" lon="6.899253">
 <ele>96.0</ele>
 <time>2014-08-23T23:41:37Z</time>
 </trkpt>
 <trkpt lat="51.223652" lon="6.89897">
 <ele>97.0</ele>
 <time>2014-08-23T23:41:42Z</time>
 </trkpt>
 <trkpt lat="51.223816" lon="6.898813">
 <ele>97.0</ele>
 <time>2014-08-23T23:41:45Z</time>
 </trkpt>
 <trkpt lat="51.22421" lon="6.898481">
 <ele>93.0</ele>
 <time>2014-08-23T23:41:51Z</time>
 </trkpt>
 <trkpt lat="51.2245" lon="6.898129">
 <ele>93.0</ele>
 <time>2014-08-23T23:41:57Z</time>
 </trkpt>
 <trkpt lat="51.224728" lon="6.897822">
 <ele>92.0</ele>
 <time>2014-08-23T23:42:02Z</time>
 </trkpt>
 <trkpt lat="51.224921" lon="6.89755">
 <ele>89.0</ele>
 <time>2014-08-23T23:42:07Z</time>
 </trkpt>
 <trkpt lat="51.225463" lon="6.897231">
 <ele>89.0</ele>
 <time>2014-08-23T23:42:14Z</time>
 </trkpt>
 <trkpt lat="51.225613" lon="6.897058">
 <ele>95.0</ele>
 <time>2014-08-23T23:42:19Z</time>
 </trkpt>
 <trkpt lat="51.225829" lon="6.896717">
 <ele>100.0</ele>
 <time>2014-08-23T23:42:26Z</time>
 </trkpt>
 <trkpt lat="51.225867" lon="6.896368">
 <ele>104.0</ele>
 <time>2014-08-23T23:42:31Z</time>
 </trkpt>
 <trkpt lat="51.225847" lon="6.89597">
 <ele>106.0</ele>
 <time>2014-08-23T23:42:37Z</time>
 </trkpt>
 <trkpt lat="51.2259" lon="6.895603">
 <ele>108.0</ele>
 <time>2014-08-23T23:42:43Z</time>
 </trkpt>
 <trkpt lat="51.226127" lon="6.895423">
 <ele>107.0</ele>
 <time>2014-08-23T23:42:48Z</time>
 </trkpt>
 <trkpt lat="51.226296" lon="6.895389">
 <ele>109.0</ele>
 <time>2014-08-23T23:42:55Z</time>
 </trkpt>
 <trkpt lat="51.226282" lon="6.894702">
 <ele>107.0</ele>
 <time>2014-08-23T23:43:09Z</time>
 </trkpt>
 <trkpt lat="51.22627" lon="6.894369">
 <ele>106.0</ele>
 <time>2014-08-23T23:43:14Z</time>
 </trkpt>
 <trkpt lat="51.226386" lon="6.893913">
 <ele>106.0</ele>
 <time>2014-08-23T23:43:20Z</time>
 </trkpt>
 <trkpt lat="51.226385" lon="6.893491">
 <ele>110.0</ele>
 <time>2014-08-23T23:43:25Z</time>
 </trkpt>
 <trkpt lat="51.226474" lon="6.892968">
 <ele>112.0</ele>
 <time>2014-08-23T23:43:31Z</time>
 </trkpt>
 <trkpt lat="51.226543" lon="6.892592">
 <ele>109.0</ele>
 <time>2014-08-23T23:43:35Z</time>
 </trkpt>
 <trkpt lat="51.226571" lon="6.89227">
 <ele>114.0</ele>
 <time>2014-08-23T23:43:38Z</time>
 </trkpt>
 <trkpt lat="51.226524" lon="6.891547">
 <ele>111.0</ele>
 <time>2014-08-23T23:43:45Z</time>
 </trkpt>
 <trkpt lat="51.226562" lon="6.891025">
 <ele>106.0</ele>
 <time>2014-08-23T23:43:50Z</time>
 </trkpt>
 <trkpt lat="51.226524" lon="6.89053">
 <ele>106.0</ele>
 <time>2014-08-23T23:43:56Z</time>
 </trkpt>
 <trkpt lat="51.226474" lon="6.889992">
 <ele>103.0</ele>
 <time>2014-08-23T23:44:02Z</time>
 </trkpt>
 <trkpt lat="51.226398" lon="6.889572">
 <ele>99.0</ele>
 <time>2014-08-23T23:44:07Z</time>
 </trkpt>
 <trkpt lat="51.226463" lon="6.889171">
 <ele>105.0</ele>
 <time>2014-08-23T23:44:12Z</time>
 </trkpt>
 <trkpt lat="51.226478" lon="6.888575">
 <ele>112.0</ele>
 <time>2014-08-23T23:44:18Z</time>
 </trkpt>
 <trkpt lat="51.226514" lon="6.887816">
 <ele>112.0</ele>
 <time>2014-08-23T23:44:25Z</time>
 </trkpt>
 <trkpt lat="51.226636" lon="6.887266">
 <ele>114.0</ele>
 <time>2014-08-23T23:44:31Z</time>
 </trkpt>
 <trkpt lat="51.226721" lon="6.887013">
 <ele>118.0</ele>
 <time>2014-08-23T23:44:34Z</time>
 </trkpt>
 <trkpt lat="51.226784" lon="6.886561">
 <ele>116.0</ele>
 <time>2014-08-23T23:44:40Z</time>
 </trkpt>
 <trkpt lat="51.226867" lon="6.886152">
 <ele>116.0</ele>
 <time>2014-08-23T23:44:45Z</time>
 </trkpt>
 <trkpt lat="51.226913" lon="6.885697">
 <ele>115.0</ele>
 <time>2014-08-23T23:44:50Z</time>
 </trkpt>
 <trkpt lat="51.226908" lon="6.885123">
 <ele>116.0</ele>
 <time>2014-08-23T23:44:56Z</time>
 </trkpt>
 <trkpt lat="51.226867" lon="6.884635">
 <ele>115.0</ele>
 <time>2014-08-23T23:45:01Z</time>
 </trkpt>
 <trkpt lat="51.22677" lon="6.88412">
 <ele>113.0</ele>
 <time>2014-08-23T23:45:07Z</time>
 </trkpt>
 <trkpt lat="51.226745" lon="6.883835">
 <ele>114.0</ele>
 <time>2014-08-23T23:45:10Z</time>
 </trkpt>
 <trkpt lat="51.226706" lon="6.883319">
 <ele>115.0</ele>
 <time>2014-08-23T23:45:16Z</time>
 </trkpt>
 <trkpt lat="51.22669" lon="6.883055">
 <ele>116.0</ele>
 <time>2014-08-23T23:45:19Z</time>
 </trkpt>
 <trkpt lat="51.226597" lon="6.882629">
 <ele>112.0</ele>
 <time>2014-08-23T23:45:24Z</time>
 </trkpt>
 <trkpt lat="51.226576" lon="6.882337">
 <ele>110.0</ele>
 <time>2014-08-23T23:45:27Z</time>
 </trkpt>
 <trkpt lat="51.226465" lon="6.881797">
 <ele>114.0</ele>
 <time>2014-08-23T23:45:33Z</time>
 </trkpt>
 <trkpt lat="51.226435" lon="6.881232">
 <ele>118.0</ele>
 <time>2014-08-23T23:45:39Z</time>
 </trkpt>
 <trkpt lat="51.226378" lon="6.880988">
 <ele>119.0</ele>
 <time>2014-08-23T23:45:42Z</time>
 </trkpt>
 <trkpt lat="51.226344" lon="6.880524">
 <ele>125.0</ele>
 <time>2014-08-23T23:45:47Z</time>
 </trkpt>
 <trkpt lat="51.2263" lon="6.880021">
 <ele>125.0</ele>
 <time>2014-08-23T23:45:52Z</time>
 </trkpt>
 <trkpt lat="51.226232" lon="6.87972">
 <ele>121.0</ele>
 <time>2014-08-23T23:45:55Z</time>
 </trkpt>
 <trkpt lat="51.22619" lon="6.879154">
 <ele>126.0</ele>
 <time>2014-08-23T23:46:01Z</time>
 </trkpt>
 <trkpt lat="51.22609" lon="6.878697">
 <ele>124.0</ele>
 <time>2014-08-23T23:46:06Z</time>
 </trkpt>
 <trkpt lat="51.225981" lon="6.87813">
 <ele>121.0</ele>
 <time>2014-08-23T23:46:12Z</time>
 </trkpt>
 <trkpt lat="51.225913" lon="6.877609">
 <ele>120.0</ele>
 <time>2014-08-23T23:46:17Z</time>
 </trkpt>
 <trkpt lat="51.225845" lon="6.87706">
 <ele>120.0</ele>
 <time>2014-08-23T23:46:23Z</time>
 </trkpt>
 <trkpt lat="51.225798" lon="6.876387">
 <ele>119.0</ele>
 <time>2014-08-23T23:46:30Z</time>
 </trkpt>
 <trkpt lat="51.22565" lon="6.875932">
 <ele>121.0</ele>
 <time>2014-08-23T23:46:36Z</time>
 </trkpt>
 <trkpt lat="51.225497" lon="6.875347">
 <ele>120.0</ele>
 <time>2014-08-23T23:46:42Z</time>
 </trkpt>
 <trkpt lat="51.225368" lon="6.874934">
 <ele>117.0</ele>
 <time>2014-08-23T23:46:47Z</time>
 </trkpt>
 <trkpt lat="51.225035" lon="6.874419">
 <ele>116.0</ele>
 <time>2014-08-23T23:46:54Z</time>
 </trkpt>
 <trkpt lat="51.224706" lon="6.874071">
 <ele>111.0</ele>
 <time>2014-08-23T23:47:00Z</time>
 </trkpt>
 <trkpt lat="51.224376" lon="6.873684">
 <ele>114.0</ele>
 <time>2014-08-23T23:47:07Z</time>
 </trkpt>
 <trkpt lat="51.224275" lon="6.87313">
 <ele>114.0</ele>
 <time>2014-08-23T23:47:12Z</time>
 </trkpt>
 <trkpt lat="51.224217" lon="6.872375">
 <ele>109.0</ele>
 <time>2014-08-23T23:47:19Z</time>
 </trkpt>
 <trkpt lat="51.224082" lon="6.872007">
 <ele>109.0</ele>
 <time>2014-08-23T23:47:24Z</time>
 </trkpt>
 <trkpt lat="51.223962" lon="6.871571">
 <ele>104.0</ele>
 <time>2014-08-23T23:47:30Z</time>
 </trkpt>
 <trkpt lat="51.22392" lon="6.871079">
 <ele>106.0</ele>
 <time>2014-08-23T23:47:36Z</time>
 </trkpt>
 <trkpt lat="51.223912" lon="6.870776">
 <ele>103.0</ele>
 <time>2014-08-23T23:47:40Z</time>
 </trkpt>
 <trkpt lat="51.223815" lon="6.870276">
 <ele>103.0</ele>
 <time>2014-08-23T23:47:46Z</time>
 </trkpt>
 <trkpt lat="51.223728" lon="6.86972">
 <ele>106.0</ele>
 <time>2014-08-23T23:47:52Z</time>
 </trkpt>
 <trkpt lat="51.223675" lon="6.869216">
 <ele>110.0</ele>
 <time>2014-08-23T23:47:57Z</time>
 </trkpt>
 <trkpt lat="51.223597" lon="6.868744">
 <ele>111.0</ele>
 <time>2014-08-23T23:48:02Z</time>
 </trkpt>
 <trkpt lat="51.223551" lon="6.868248">
 <ele>114.0</ele>
 <time>2014-08-23T23:48:07Z</time>
 </trkpt>
 <trkpt lat="51.223448" lon="6.867562">
 <ele>114.0</ele>
 <time>2014-08-23T23:48:14Z</time>
 </trkpt>
 <trkpt lat="51.22334" lon="6.866963">
 <ele>115.0</ele>
 <time>2014-08-23T23:48:20Z</time>
 </trkpt>
 <trkpt lat="51.223339" lon="6.866534">
 <ele>117.0</ele>
 <time>2014-08-23T23:48:24Z</time>
 </trkpt>
 <trkpt lat="51.223315" lon="6.866219">
 <ele>115.0</ele>
 <time>2014-08-23T23:48:27Z</time>
 </trkpt>
 <trkpt lat="51.223261" lon="6.865911">
 <ele>109.0</ele>
 <time>2014-08-23T23:48:30Z</time>
 </trkpt>
 <trkpt lat="51.223256" lon="6.865615">
 <ele>109.0</ele>
 <time>2014-08-23T23:48:33Z</time>
 </trkpt>
 <trkpt lat="51.22325" lon="6.865318">
 <ele>109.0</ele>
 <time>2014-08-23T23:48:36Z</time>
 </trkpt>
 <trkpt lat="51.223274" lon="6.864972">
 <ele>106.0</ele>
 <time>2014-08-23T23:48:41Z</time>
 </trkpt>
 <trkpt lat="51.2232" lon="6.864698">
 <ele>103.0</ele>
 <time>2014-08-23T23:48:48Z</time>
 </trkpt>
 <trkpt lat="51.222889" lon="6.864897">
 <ele>100.0</ele>
 <time>2014-08-23T23:48:56Z</time>
 </trkpt>
 <trkpt lat="51.222661" lon="6.865039">
 <ele>103.0</ele>
 <time>2014-08-23T23:49:00Z</time>
 </trkpt>
 <trkpt lat="51.222305" lon="6.865225">
 <ele>99.0</ele>
 <time>2014-08-23T23:49:06Z</time>
 </trkpt>
 <trkpt lat="51.222014" lon="6.86527">
 <ele>96.0</ele>
 <time>2014-08-23T23:49:11Z</time>
 </trkpt>
 <trkpt lat="51.22178" lon="6.8653">
 <ele>97.0</ele>
 <time>2014-08-23T23:49:15Z</time>
 </trkpt>
 <trkpt lat="51.221398" lon="6.865373">
 <ele>95.0</ele>
 <time>2014-08-23T23:49:21Z</time>
 </trkpt>
 <trkpt lat="51.221094" lon="6.865382">
 <ele>96.0</ele>
 <time>2014-08-23T23:49:26Z</time>
 </trkpt>
 <trkpt lat="51.220843" lon="6.865354">
 <ele>99.0</ele>
 <time>2014-08-23T23:49:31Z</time>
 </trkpt>
 <trkpt lat="51.220662" lon="6.865767">
 <ele>94.0</ele>
 <time>2014-08-23T23:49:38Z</time>
 </trkpt>
 <trkpt lat="51.220676" lon="6.866243">
 <ele>96.0</ele>
 <time>2014-08-23T23:49:45Z</time>
 </trkpt>
 <trkpt lat="51.220684" lon="6.866584">
 <ele>98.0</ele>
 <time>2014-08-23T23:49:52Z</time>
 </trkpt>
 <trkpt lat="51.220692" lon="6.866943">
 <ele>98.0</ele>
 <time>2014-08-23T23:50:00Z</time>
 </trkpt>
 <trkpt lat="51.220703" lon="6.867439">
 <ele>94.0</ele>
 <time>2014-08-23T23:50:12Z</time>
 </trkpt>
 <trkpt lat="51.220727" lon="6.867831">
 <ele>93.0</ele>
 <time>2014-08-23T23:50:20Z</time>
 </trkpt>
 <trkpt lat="51.220823" lon="6.868196">
 <ele>94.0</ele>
 <time>2014-08-23T23:50:29Z</time>
 </trkpt>
 <trkpt lat="51.220776" lon="6.86849">
 <ele>95.0</ele>
 <time>2014-08-23T23:50:37Z</time>
 </trkpt>
 <trkpt lat="51.220615" lon="6.86867">
 <ele>94.0</ele>
 <time>2014-08-23T23:50:45Z</time>
 </trkpt>
 <trkpt lat="51.220387" lon="6.868684">
 <ele>95.0</ele>
 <time>2014-08-23T23:50:52Z</time>
 </trkpt>
 <trkpt lat="51.22019" lon="6.868299">
 <ele>95.0</ele>
 <time>2014-08-23T23:51:00Z</time>
 </trkpt>
 <trkpt lat="51.22021" lon="6.867884">
 <ele>94.0</ele>
 <time>2014-08-23T23:51:05Z</time>
 </trkpt>
 <trkpt lat="51.220194" lon="6.867303">
 <ele>93.0</ele>
 <time>2014-08-23T23:51:11Z</time>
 </trkpt>
 <trkpt lat="51.22013" lon="6.866784">
 <ele>94.0</ele>
 <time>2014-08-23T23:51:16Z</time>
 </trkpt>
 <trkpt lat="51.220091" lon="6.866061">
 <ele>94.0</ele>
 <time>2014-08-23T23:51:22Z</time>
 </trkpt>
 <trkpt lat="51.21987" lon="6.865571">
 <ele>97.0</ele>
 <time>2014-08-23T23:51:28Z</time>
 </trkpt>
 <trkpt lat="51.219477" lon="6.865704">
 <ele>96.0</ele>
 <time>2014-08-23T23:51:34Z</time>
 </trkpt>
 <trkpt lat="51.219163" lon="6.865671">
 <ele>91.0</ele>
 <time>2014-08-23T23:51:39Z</time>
 </trkpt>
 <trkpt lat="51.218897" lon="6.865751">
 <ele>90.0</ele>
 <time>2014-08-23T23:51:44Z</time>
 </trkpt>
 <trkpt lat="51.218599" lon="6.865795">
 <ele>92.0</ele>
 <time>2014-08-23T23:51:50Z</time>
 </trkpt>
 <trkpt lat="51.218296" lon="6.865874">
 <ele>92.0</ele>
 <time>2014-08-23T23:51:56Z</time>
 </trkpt>
 <trkpt lat="51.218013" lon="6.865922">
 <ele>89.0</ele>
 <time>2014-08-23T23:52:02Z</time>
 </trkpt>
 <trkpt lat="51.217873" lon="6.865938">
 <ele>88.0</ele>
 <time>2014-08-23T23:52:05Z</time>
 </trkpt>
 <trkpt lat="51.217714" lon="6.865958">
 <ele>88.0</ele>
 <time>2014-08-23T23:52:08Z</time>
 </trkpt>
 <trkpt lat="51.217572" lon="6.866005">
 <ele>90.0</ele>
 <time>2014-08-23T23:52:11Z</time>
 </trkpt>
 <trkpt lat="51.217479" lon="6.865791">
 <ele>89.0</ele>
 <time>2014-08-23T23:52:16Z</time>
 </trkpt>
 <trkpt lat="51.217461" lon="6.865456">
 <ele>91.0</ele>
 <time>2014-08-23T23:52:23Z</time>
 </trkpt>
 <trkpt lat="51.217455" lon="6.865192">
 <ele>90.0</ele>
 <time>2014-08-23T23:52:28Z</time>
 </trkpt>
 <trkpt lat="51.217456" lon="6.864885">
 <ele>88.0</ele>
 <time>2014-08-23T23:52:34Z</time>
 </trkpt>
 <trkpt lat="51.217544" lon="6.864362">
 <ele>87.0</ele>
 <time>2014-08-23T23:52:42Z</time>
 </trkpt>
 <trkpt lat="51.217591" lon="6.863994">
 <ele>85.0</ele>
 <time>2014-08-23T23:52:47Z</time>
 </trkpt>
 <trkpt lat="51.21764" lon="6.863515">
 <ele>87.0</ele>
 <time>2014-08-23T23:52:53Z</time>
 </trkpt>
 <trkpt lat="51.217691" lon="6.863032">
 <ele>88.0</ele>
 <time>2014-08-23T23:52:59Z</time>
 </trkpt>
 <trkpt lat="51.21772" lon="6.862695">
 <ele>87.0</ele>
 <time>2014-08-23T23:53:04Z</time>
 </trkpt>
 <trkpt lat="51.217775" lon="6.862351">
 <ele>88.0</ele>
 <time>2014-08-23T23:53:12Z</time>
 </trkpt>
 <trkpt lat="51.217802" lon="6.86229">
 <ele>88.0</ele>
 <time>2014-08-23T23:53:14Z</time>
 </trkpt>
 <trkpt lat="51.217802" lon="6.86229">
 <time>2014-08-23T23:53:19Z</time>
 </trkpt>
 </trkseg>
 <trkseg>
 <trkpt lat="51.217802" lon="6.86229">
 <time>2014-08-23T23:55:54Z</time>
 </trkpt>
 <trkpt lat="51.217911" lon="6.86216">
 <ele>88.0</ele>
 <time>2014-08-23T23:55:54Z</time>
 </trkpt>
 <trkpt lat="51.21803" lon="6.86222">
 <ele>89.0</ele>
 <time>2014-08-23T23:55:59Z</time>
 </trkpt>
 <trkpt lat="51.218323" lon="6.862334">
 <ele>88.0</ele>
 <time>2014-08-23T23:56:11Z</time>
 </trkpt>
 <trkpt lat="51.218325" lon="6.861981">
 <ele>84.0</ele>
 <time>2014-08-23T23:56:19Z</time>
 </trkpt>
 <trkpt lat="51.218365" lon="6.86166">
 <ele>85.0</ele>
 <time>2014-08-23T23:56:27Z</time>
 </trkpt>
 <trkpt lat="51.218439" lon="6.861375">
 <ele>87.0</ele>
 <time>2014-08-23T23:56:35Z</time>
 </trkpt>
 <trkpt lat="51.218502" lon="6.861087">
 <ele>87.0</ele>
 <time>2014-08-23T23:56:40Z</time>
 </trkpt>
 <trkpt lat="51.218618" lon="6.860669">
 <ele>89.0</ele>
 <time>2014-08-23T23:56:46Z</time>
 </trkpt>
 <trkpt lat="51.218649" lon="6.860167">
 <ele>87.0</ele>
 <time>2014-08-23T23:56:52Z</time>
 </trkpt>
 <trkpt lat="51.218641" lon="6.859723">
 <ele>86.0</ele>
 <time>2014-08-23T23:56:57Z</time>
 </trkpt>
 <trkpt lat="51.218621" lon="6.85939">
 <ele>89.0</ele>
 <time>2014-08-23T23:57:01Z</time>
 </trkpt>
 <trkpt lat="51.218638" lon="6.858781">
 <ele>91.0</ele>
 <time>2014-08-23T23:57:08Z</time>
 </trkpt>
 <trkpt lat="51.218731" lon="6.85825">
 <ele>92.0</ele>
 <time>2014-08-23T23:57:14Z</time>
 </trkpt>
 <trkpt lat="51.218799" lon="6.857823">
 <ele>95.0</ele>
 <time>2014-08-23T23:57:19Z</time>
 </trkpt>
 <trkpt lat="51.218909" lon="6.857387">
 <ele>96.0</ele>
 <time>2014-08-23T23:57:24Z</time>
 </trkpt>
 <trkpt lat="51.218953" lon="6.856952">
 <ele>97.0</ele>
 <time>2014-08-23T23:57:29Z</time>
 </trkpt>
 <trkpt lat="51.218951" lon="6.856444">
 <ele>97.0</ele>
 <time>2014-08-23T23:57:35Z</time>
 </trkpt>
 <trkpt lat="51.218932" lon="6.856014">
 <ele>98.0</ele>
 <time>2014-08-23T23:57:40Z</time>
 </trkpt>
 <trkpt lat="51.218634" lon="6.855715">
 <ele>100.0</ele>
 <time>2014-08-23T23:57:47Z</time>
 </trkpt>
 <trkpt lat="51.218297" lon="6.855655">
 <ele>98.0</ele>
 <time>2014-08-23T23:57:53Z</time>
 </trkpt>
 <trkpt lat="51.218048" lon="6.855604">
 <ele>98.0</ele>
 <time>2014-08-23T23:57:58Z</time>
 </trkpt>
 <trkpt lat="51.217745" lon="6.855449">
 <ele>100.0</ele>
 <time>2014-08-23T23:58:04Z</time>
 </trkpt>
 <trkpt lat="51.217443" lon="6.855394">
 <ele>96.0</ele>
 <time>2014-08-23T23:58:10Z</time>
 </trkpt>
 <trkpt lat="51.21717" lon="6.855301">
 <ele>95.0</ele>
 <time>2014-08-23T23:58:15Z</time>
 </trkpt>
 <trkpt lat="51.216905" lon="6.855242">
 <ele>97.0</ele>
 <time>2014-08-23T23:58:20Z</time>
 </trkpt>
 <trkpt lat="51.216604" lon="6.855246">
 <ele>99.0</ele>
 <time>2014-08-23T23:58:26Z</time>
 </trkpt>
 <trkpt lat="51.216453" lon="6.855243">
 <ele>98.0</ele>
 <time>2014-08-23T23:58:29Z</time>
 </trkpt>
 <trkpt lat="51.216292" lon="6.855285">
 <ele>97.0</ele>
 <time>2014-08-23T23:58:32Z</time>
 </trkpt>
 <trkpt lat="51.215924" lon="6.855348">
 <ele>95.0</ele>
 <time>2014-08-23T23:58:39Z</time>
 </trkpt>
 <trkpt lat="51.215615" lon="6.855381">
 <ele>94.0</ele>
 <time>2014-08-23T23:58:45Z</time>
 </trkpt>
 <trkpt lat="51.215303" lon="6.855411">
 <ele>94.0</ele>
 <time>2014-08-23T23:58:51Z</time>
 </trkpt>
 <trkpt lat="51.214998" lon="6.855518">
 <ele>93.0</ele>
 <time>2014-08-23T23:58:57Z</time>
 </trkpt>
 <trkpt lat="51.214764" lon="6.855613">
 <ele>91.0</ele>
 <time>2014-08-23T23:59:02Z</time>
 </trkpt>
 <trkpt lat="51.214433" lon="6.855632">
 <ele>94.0</ele>
 <time>2014-08-23T23:59:08Z</time>
 </trkpt>
 <trkpt lat="51.214074" lon="6.855688">
 <ele>94.0</ele>
 <time>2014-08-23T23:59:15Z</time>
 </trkpt>
 <trkpt lat="51.213799" lon="6.855697">
 <ele>94.0</ele>
 <time>2014-08-23T23:59:21Z</time>
 </trkpt>
 <trkpt lat="51.213507" lon="6.855753">
 <ele>89.0</ele>
 <time>2014-08-23T23:59:26Z</time>
 </trkpt>
 <trkpt lat="51.213351" lon="6.855752">
 <ele>86.0</ele>
 <time>2014-08-23T23:59:29Z</time>
 </trkpt>
 <trkpt lat="51.2131" lon="6.855767">
 <ele>88.0</ele>
 <time>2014-08-23T23:59:35Z</time>
 </trkpt>
 <trkpt lat="51.212917" lon="6.855717">
 <ele>87.0</ele>
 <time>2014-08-23T23:59:42Z</time>
 </trkpt>
 <trkpt lat="51.212672" lon="6.855565">
 <ele>83.0</ele>
 <time>2014-08-23T23:59:50Z</time>
 </trkpt>
 <trkpt lat="51.212501" lon="6.85543">
 <ele>84.0</ele>
 <time>2014-08-23T23:59:58Z</time>
 </trkpt>
 <trkpt lat="51.212501" lon="6.85543">
 <ele>84.0</ele>
 <time>2014-08-24T00:00:06Z</time>
 </trkpt>
 <trkpt lat="51.212501" lon="6.85543">
 <time>2014-08-24T00:00:06Z</time>
 </trkpt>
 </trkseg>
 <trkseg>
 <trkpt lat="51.212501" lon="6.85543">
 <time>2014-08-24T00:00:22Z</time>
 </trkpt>
 <trkpt lat="51.212655" lon="6.855527">
 <ele>91.0</ele>
 <time>2014-08-24T00:00:22Z</time>
 </trkpt>
 <trkpt lat="51.212845" lon="6.855621">
 <ele>88.0</ele>
 <time>2014-08-24T00:00:30Z</time>
 </trkpt>
 <trkpt lat="51.213032" lon="6.855106">
 <ele>82.0</ele>
 <time>2014-08-24T00:00:42Z</time>
 </trkpt>
 <trkpt lat="51.213105" lon="6.854727">
 <ele>87.0</ele>
 <time>2014-08-24T00:00:47Z</time>
 </trkpt>
 <trkpt lat="51.213162" lon="6.854302">
 <ele>86.0</ele>
 <time>2014-08-24T00:00:52Z</time>
 </trkpt>
 <trkpt lat="51.213234" lon="6.853875">
 <ele>87.0</ele>
 <time>2014-08-24T00:00:57Z</time>
 </trkpt>
 <trkpt lat="51.213256" lon="6.853601">
 <ele>88.0</ele>
 <time>2014-08-24T00:01:00Z</time>
 </trkpt>
 <trkpt lat="51.213284" lon="6.853342">
 <ele>87.0</ele>
 <time>2014-08-24T00:01:03Z</time>
 </trkpt>
 <trkpt lat="51.213316" lon="6.853017">
 <ele>86.0</ele>
 <time>2014-08-24T00:01:07Z</time>
 </trkpt>
 <trkpt lat="51.213333" lon="6.852759">
 <ele>87.0</ele>
 <time>2014-08-24T00:01:10Z</time>
 </trkpt>
 <trkpt lat="51.213383" lon="6.852303">
 <ele>86.0</ele>
 <time>2014-08-24T00:01:15Z</time>
 </trkpt>
 <trkpt lat="51.21345" lon="6.851651">
 <ele>86.0</ele>
 <time>2014-08-24T00:01:22Z</time>
 </trkpt>
 <trkpt lat="51.213492" lon="6.851114">
 <ele>86.0</ele>
 <time>2014-08-24T00:01:28Z</time>
 </trkpt>
 <trkpt lat="51.213526" lon="6.85063">
 <ele>87.0</ele>
 <time>2014-08-24T00:01:33Z</time>
 </trkpt>
 <trkpt lat="51.213576" lon="6.850233">
 <ele>89.0</ele>
 <time>2014-08-24T00:01:37Z</time>
 </trkpt>
 <trkpt lat="51.213676" lon="6.849816">
 <ele>92.0</ele>
 <time>2014-08-24T00:01:42Z</time>
 </trkpt>
 <trkpt lat="51.213714" lon="6.849296">
 <ele>92.0</ele>
 <time>2014-08-24T00:01:48Z</time>
 </trkpt>
 <trkpt lat="51.213758" lon="6.848855">
 <ele>92.0</ele>
 <time>2014-08-24T00:01:53Z</time>
 </trkpt>
 <trkpt lat="51.213801" lon="6.848447">
 <ele>93.0</ele>
 <time>2014-08-24T00:01:58Z</time>
 </trkpt>
 <trkpt lat="51.213872" lon="6.847966">
 <ele>96.0</ele>
 <time>2014-08-24T00:02:05Z</time>
 </trkpt>
 <trkpt lat="51.213936" lon="6.847897">
 <ele>95.0</ele>
 <time>2014-08-24T00:02:08Z</time>
 </trkpt>
 <trkpt lat="51.213936" lon="6.847897">
 <time>2014-08-24T00:02:14Z</time>
 </trkpt>
 </trkseg>
 <trkseg>
 <trkpt lat="51.213936" lon="6.847897">
 <time>2014-08-24T00:02:19Z</time>
 </trkpt>
 <trkpt lat="51.213943" lon="6.847732">
 <ele>91.0</ele>
 <time>2014-08-24T00:02:19Z</time>
 </trkpt>
 <trkpt lat="51.213975" lon="6.847066">
 <ele>94.0</ele>
 <time>2014-08-24T00:02:30Z</time>
 </trkpt>
 <trkpt lat="51.214011" lon="6.846618">
 <ele>92.0</ele>
 <time>2014-08-24T00:02:36Z</time>
 </trkpt>
 <trkpt lat="51.214088" lon="6.846108">
 <ele>89.0</ele>
 <time>2014-08-24T00:02:42Z</time>
 </trkpt>
 <trkpt lat="51.214131" lon="6.84567">
 <ele>87.0</ele>
 <time>2014-08-24T00:02:47Z</time>
 </trkpt>
 <trkpt lat="51.214166" lon="6.845379">
 <ele>89.0</ele>
 <time>2014-08-24T00:02:50Z</time>
 </trkpt>
 <trkpt lat="51.214238" lon="6.844631">
 <ele>88.0</ele>
 <time>2014-08-24T00:02:58Z</time>
 </trkpt>
 <trkpt lat="51.214289" lon="6.844024">
 <ele>81.0</ele>
 <time>2014-08-24T00:03:03Z</time>
 </trkpt>
 <trkpt lat="51.214485" lon="6.843001">
 <ele>83.0</ele>
 <time>2014-08-24T00:03:12Z</time>
 </trkpt>
 <trkpt lat="51.214591" lon="6.842389">
 <ele>86.0</ele>
 <time>2014-08-24T00:03:18Z</time>
 </trkpt>
 <trkpt lat="51.21462" lon="6.841881">
 <ele>84.0</ele>
 <time>2014-08-24T00:03:24Z</time>
 </trkpt>
 <trkpt lat="51.214606" lon="6.84141">
 <ele>86.0</ele>
 <time>2014-08-24T00:03:30Z</time>
 </trkpt>
 <trkpt lat="51.214656" lon="6.840995">
 <ele>83.0</ele>
 <time>2014-08-24T00:03:35Z</time>
 </trkpt>
 <trkpt lat="51.214713" lon="6.840457">
 <ele>80.0</ele>
 <time>2014-08-24T00:03:41Z</time>
 </trkpt>
 <trkpt lat="51.214808" lon="6.84004">
 <ele>86.0</ele>
 <time>2014-08-24T00:03:46Z</time>
 </trkpt>
 <trkpt lat="51.21489" lon="6.839583">
 <ele>87.0</ele>
 <time>2014-08-24T00:03:51Z</time>
 </trkpt>
 <trkpt lat="51.21498" lon="6.839099">
 <ele>91.0</ele>
 <time>2014-08-24T00:03:56Z</time>
 </trkpt>
 <trkpt lat="51.21501" lon="6.838535">
 <ele>94.0</ele>
 <time>2014-08-24T00:04:02Z</time>
 </trkpt>
 <trkpt lat="51.215047" lon="6.838092">
 <ele>93.0</ele>
 <time>2014-08-24T00:04:09Z</time>
 </trkpt>
 <trkpt lat="51.215062" lon="6.837557">
 <ele>88.0</ele>
 <time>2014-08-24T00:04:16Z</time>
 </trkpt>
 <trkpt lat="51.21516" lon="6.83694">
 <ele>89.0</ele>
 <time>2014-08-24T00:04:23Z</time>
 </trkpt>
 <trkpt lat="51.215249" lon="6.836416">
 <ele>99.0</ele>
 <time>2014-08-24T00:04:29Z</time>
 </trkpt>
 <trkpt lat="51.215323" lon="6.835906">
 <ele>102.0</ele>
 <time>2014-08-24T00:04:34Z</time>
 </trkpt>
 <trkpt lat="51.215363" lon="6.835358">
 <ele>99.0</ele>
 <time>2014-08-24T00:04:40Z</time>
 </trkpt>
 <trkpt lat="51.21544" lon="6.834887">
 <ele>98.0</ele>
 <time>2014-08-24T00:04:45Z</time>
 </trkpt>
 <trkpt lat="51.215466" lon="6.834597">
 <ele>99.0</ele>
 <time>2014-08-24T00:04:48Z</time>
 </trkpt>
 <trkpt lat="51.215516" lon="6.834314">
 <ele>99.0</ele>
 <time>2014-08-24T00:04:51Z</time>
 </trkpt>
 <trkpt lat="51.215549" lon="6.834027">
 <ele>100.0</ele>
 <time>2014-08-24T00:04:54Z</time>
 </trkpt>
 <trkpt lat="51.215592" lon="6.833443">
 <ele>102.0</ele>
 <time>2014-08-24T00:05:00Z</time>
 </trkpt>
 <trkpt lat="51.215642" lon="6.832857">
 <ele>96.0</ele>
 <time>2014-08-24T00:05:06Z</time>
 </trkpt>
 <trkpt lat="51.215682" lon="6.832275">
 <ele>89.0</ele>
 <time>2014-08-24T00:05:12Z</time>
 </trkpt>
 <trkpt lat="51.215714" lon="6.831991">
 <ele>90.0</ele>
 <time>2014-08-24T00:05:15Z</time>
 </trkpt>
 <trkpt lat="51.215751" lon="6.831544">
 <ele>88.0</ele>
 <time>2014-08-24T00:05:20Z</time>
 </trkpt>
 <trkpt lat="51.215781" lon="6.831264">
 <ele>87.0</ele>
 <time>2014-08-24T00:05:23Z</time>
 </trkpt>
 <trkpt lat="51.215826" lon="6.8309">
 <ele>89.0</ele>
 <time>2014-08-24T00:05:27Z</time>
 </trkpt>
 <trkpt lat="51.21588" lon="6.83046">
 <ele>90.0</ele>
 <time>2014-08-24T00:05:32Z</time>
 </trkpt>
 <trkpt lat="51.215908" lon="6.830173">
 <ele>89.0</ele>
 <time>2014-08-24T00:05:35Z</time>
 </trkpt>
 <trkpt lat="51.215938" lon="6.829902">
 <ele>89.0</ele>
 <time>2014-08-24T00:05:38Z</time>
 </trkpt>
 <trkpt lat="51.216002" lon="6.829365">
 <ele>91.0</ele>
 <time>2014-08-24T00:05:44Z</time>
 </trkpt>
 <trkpt lat="51.216044" lon="6.828812">
 <ele>91.0</ele>
 <time>2014-08-24T00:05:50Z</time>
 </trkpt>
 <trkpt lat="51.21613" lon="6.828278">
 <ele>90.0</ele>
 <time>2014-08-24T00:05:56Z</time>
 </trkpt>
 <trkpt lat="51.21634" lon="6.827801">
 <ele>93.0</ele>
 <time>2014-08-24T00:06:02Z</time>
 </trkpt>
 <trkpt lat="51.216495" lon="6.827381">
 <ele>92.0</ele>
 <time>2014-08-24T00:06:07Z</time>
 </trkpt>
 <trkpt lat="51.216632" lon="6.826946">
 <ele>93.0</ele>
 <time>2014-08-24T00:06:12Z</time>
 </trkpt>
 <trkpt lat="51.21679" lon="6.826444">
 <ele>93.0</ele>
 <time>2014-08-24T00:06:18Z</time>
 </trkpt>
 <trkpt lat="51.21699" lon="6.825943">
 <ele>91.0</ele>
 <time>2014-08-24T00:06:24Z</time>
 </trkpt>
 <trkpt lat="51.217102" lon="6.825565">
 <ele>87.0</ele>
 <time>2014-08-24T00:06:29Z</time>
 </trkpt>
 <trkpt lat="51.217263" lon="6.825079">
 <ele>88.0</ele>
 <time>2014-08-24T00:06:35Z</time>
 </trkpt>
 <trkpt lat="51.217391" lon="6.824672">
 <ele>88.0</ele>
 <time>2014-08-24T00:06:40Z</time>
 </trkpt>
 <trkpt lat="51.217542" lon="6.824287">
 <ele>87.0</ele>
 <time>2014-08-24T00:06:45Z</time>
 </trkpt>
 <trkpt lat="51.217721" lon="6.823782">
 <ele>87.0</ele>
 <time>2014-08-24T00:06:51Z</time>
 </trkpt>
 <trkpt lat="51.217821" lon="6.823554">
 <ele>88.0</ele>
 <time>2014-08-24T00:06:54Z</time>
 </trkpt>
 <trkpt lat="51.217974" lon="6.823129">
 <ele>87.0</ele>
 <time>2014-08-24T00:06:59Z</time>
 </trkpt>
 <trkpt lat="51.218144" lon="6.822634">
 <ele>87.0</ele>
 <time>2014-08-24T00:07:05Z</time>
 </trkpt>
 <trkpt lat="51.218297" lon="6.822223">
 <ele>88.0</ele>
 <time>2014-08-24T00:07:10Z</time>
 </trkpt>
 <trkpt lat="51.218467" lon="6.821748">
 <ele>90.0</ele>
 <time>2014-08-24T00:07:16Z</time>
 </trkpt>
 <trkpt lat="51.218611" lon="6.821369">
 <ele>88.0</ele>
 <time>2014-08-24T00:07:21Z</time>
 </trkpt>
 <trkpt lat="51.218691" lon="6.821172">
 <ele>89.0</ele>
 <time>2014-08-24T00:07:24Z</time>
 </trkpt>
 <trkpt lat="51.218828" lon="6.820801">
 <ele>86.0</ele>
 <time>2014-08-24T00:07:30Z</time>
 </trkpt>
 <trkpt lat="51.218745" lon="6.820429">
 <ele>89.0</ele>
 <time>2014-08-24T00:07:36Z</time>
 </trkpt>
 <trkpt lat="51.218473" lon="6.820252">
 <ele>90.0</ele>
 <time>2014-08-24T00:07:42Z</time>
 </trkpt>
 <trkpt lat="51.218215" lon="6.820111">
 <ele>88.0</ele>
 <time>2014-08-24T00:07:48Z</time>
 </trkpt>
 <trkpt lat="51.218002" lon="6.819921">
 <ele>85.0</ele>
 <time>2014-08-24T00:07:53Z</time>
 </trkpt>
 <trkpt lat="51.217715" lon="6.819723">
 <ele>89.0</ele>
 <time>2014-08-24T00:07:59Z</time>
 </trkpt>
 <trkpt lat="51.217284" lon="6.819435">
 <ele>90.0</ele>
 <time>2014-08-24T00:08:09Z</time>
 </trkpt>
 <trkpt lat="51.217057" lon="6.819291">
 <ele>90.0</ele>
 <time>2014-08-24T00:08:14Z</time>
 </trkpt>
 <trkpt lat="51.216898" lon="6.819063">
 <ele>89.0</ele>
 <time>2014-08-24T00:08:20Z</time>
 </trkpt>
 <trkpt lat="51.216792" lon="6.818811">
 <ele>86.0</ele>
 <time>2014-08-24T00:08:26Z</time>
 </trkpt>
 <trkpt lat="51.216918" lon="6.818516">
 <ele>84.0</ele>
 <time>2014-08-24T00:08:31Z</time>
 </trkpt>
 <trkpt lat="51.217087" lon="6.818211">
 <ele>84.0</ele>
 <time>2014-08-24T00:08:36Z</time>
 </trkpt>
 <trkpt lat="51.217283" lon="6.817805">
 <ele>85.0</ele>
 <time>2014-08-24T00:08:42Z</time>
 </trkpt>
 <trkpt lat="51.217439" lon="6.817501">
 <ele>85.0</ele>
 <time>2014-08-24T00:08:46Z</time>
 </trkpt>
 <trkpt lat="51.217637" lon="6.817052">
 <ele>86.0</ele>
 <time>2014-08-24T00:08:52Z</time>
 </trkpt>
 <trkpt lat="51.217824" lon="6.816684">
 <ele>87.0</ele>
 <time>2014-08-24T00:08:57Z</time>
 </trkpt>
 <trkpt lat="51.218007" lon="6.816172">
 <ele>89.0</ele>
 <time>2014-08-24T00:09:03Z</time>
 </trkpt>
 <trkpt lat="51.218183" lon="6.815661">
 <ele>94.0</ele>
 <time>2014-08-24T00:09:09Z</time>
 </trkpt>
 <trkpt lat="51.218399" lon="6.815195">
 <ele>96.0</ele>
 <time>2014-08-24T00:09:15Z</time>
 </trkpt>
 <trkpt lat="51.218595" lon="6.81478">
 <ele>93.0</ele>
 <time>2014-08-24T00:09:21Z</time>
 </trkpt>
 <trkpt lat="51.218766" lon="6.814345">
 <ele>92.0</ele>
 <time>2014-08-24T00:09:26Z</time>
 </trkpt>
 <trkpt lat="51.218963" lon="6.813838">
 <ele>94.0</ele>
 <time>2014-08-24T00:09:32Z</time>
 </trkpt>
 <trkpt lat="51.219131" lon="6.813366">
 <ele>91.0</ele>
 <time>2014-08-24T00:09:38Z</time>
 </trkpt>
 <trkpt lat="51.219437" lon="6.812949">
 <ele>88.0</ele>
 <time>2014-08-24T00:09:44Z</time>
 </trkpt>
 <trkpt lat="51.21967" lon="6.812465">
 <ele>89.0</ele>
 <time>2014-08-24T00:09:50Z</time>
 </trkpt>
 <trkpt lat="51.219847" lon="6.811994">
 <ele>90.0</ele>
 <time>2014-08-24T00:09:55Z</time>
 </trkpt>
 <trkpt lat="51.220008" lon="6.811226">
 <ele>91.0</ele>
 <time>2014-08-24T00:10:02Z</time>
 </trkpt>
 <trkpt lat="51.220196" lon="6.810765">
 <ele>93.0</ele>
 <time>2014-08-24T00:10:08Z</time>
 </trkpt>
 <trkpt lat="51.220296" lon="6.810431">
 <ele>88.0</ele>
 <time>2014-08-24T00:10:12Z</time>
 </trkpt>
 <trkpt lat="51.220376" lon="6.810005">
 <ele>87.0</ele>
 <time>2014-08-24T00:10:17Z</time>
 </trkpt>
 <trkpt lat="51.22058" lon="6.809651">
 <ele>90.0</ele>
 <time>2014-08-24T00:10:23Z</time>
 </trkpt>
 <trkpt lat="51.220698" lon="6.809358">
 <ele>91.0</ele>
 <time>2014-08-24T00:10:27Z</time>
 </trkpt>
 <trkpt lat="51.220698" lon="6.809358">
 <time>2014-08-24T00:10:33Z</time>
 </trkpt>
 </trkseg>
 <trkseg>
 <trkpt lat="51.220698" lon="6.809358">
 <time>2014-08-24T00:10:58Z</time>
 </trkpt>
 <trkpt lat="51.220872" lon="6.809132">
 <ele>87.0</ele>
 <time>2014-08-24T00:10:58Z</time>
 </trkpt>
 <trkpt lat="51.221005" lon="6.8088">
 <ele>88.0</ele>
 <time>2014-08-24T00:11:04Z</time>
 </trkpt>
 <trkpt lat="51.221156" lon="6.808416">
 <ele>91.0</ele>
 <time>2014-08-24T00:11:09Z</time>
 </trkpt>
 <trkpt lat="51.221353" lon="6.808021">
 <ele>92.0</ele>
 <time>2014-08-24T00:11:15Z</time>
 </trkpt>
 <trkpt lat="51.221577" lon="6.807506">
 <ele>93.0</ele>
 <time>2014-08-24T00:11:21Z</time>
 </trkpt>
 <trkpt lat="51.221721" lon="6.807171">
 <ele>93.0</ele>
 <time>2014-08-24T00:11:26Z</time>
 </trkpt>
 <trkpt lat="51.221942" lon="6.806662">
 <ele>92.0</ele>
 <time>2014-08-24T00:11:33Z</time>
 </trkpt>
 <trkpt lat="51.222045" lon="6.806321">
 <ele>91.0</ele>
 <time>2014-08-24T00:11:39Z</time>
 </trkpt>
 <trkpt lat="51.222216" lon="6.805865">
 <ele>89.0</ele>
 <time>2014-08-24T00:11:46Z</time>
 </trkpt>
 <trkpt lat="51.222258" lon="6.805279">
 <ele>92.0</ele>
 <time>2014-08-24T00:11:54Z</time>
 </trkpt>
 <trkpt lat="51.222343" lon="6.805015">
 <ele>93.0</ele>
 <time>2014-08-24T00:11:59Z</time>
 </trkpt>
 <trkpt lat="51.222432" lon="6.804572">
 <ele>89.0</ele>
 <time>2014-08-24T00:12:06Z</time>
 </trkpt>
 <trkpt lat="51.222511" lon="6.804263">
 <ele>88.0</ele>
 <time>2014-08-24T00:12:12Z</time>
 </trkpt>
 <trkpt lat="51.222521" lon="6.804022">
 <ele>90.0</ele>
 <time>2014-08-24T00:12:17Z</time>
 </trkpt>
 <trkpt lat="51.222552" lon="6.803678">
 <ele>90.0</ele>
 <time>2014-08-24T00:12:23Z</time>
 </trkpt>
 <trkpt lat="51.22256" lon="6.803369">
 <ele>91.0</ele>
 <time>2014-08-24T00:12:28Z</time>
 </trkpt>
 <trkpt lat="51.222525" lon="6.802904">
 <ele>101.0</ele>
 <time>2014-08-24T00:12:35Z</time>
 </trkpt>
 <trkpt lat="51.222409" lon="6.802551">
 <ele>95.0</ele>
 <time>2014-08-24T00:12:42Z</time>
 </trkpt>
 <trkpt lat="51.222646" lon="6.801794">
 <ele>81.0</ele>
 <time>2014-08-24T00:12:51Z</time>
 </trkpt>
 <trkpt lat="51.223063" lon="6.801417">
 <ele>89.0</ele>
 <time>2014-08-24T00:12:57Z</time>
 </trkpt>
 <trkpt lat="51.223371" lon="6.801068">
 <ele>98.0</ele>
 <time>2014-08-24T00:13:02Z</time>
 </trkpt>
 <trkpt lat="51.22363" lon="6.800742">
 <ele>97.0</ele>
 <time>2014-08-24T00:13:07Z</time>
 </trkpt>
 <trkpt lat="51.223646" lon="6.79996">
 <ele>93.0</ele>
 <time>2014-08-24T00:13:13Z</time>
 </trkpt>
 <trkpt lat="51.223662" lon="6.799165">
 <ele>96.0</ele>
 <time>2014-08-24T00:13:20Z</time>
 </trkpt>
 <trkpt lat="51.223821" lon="6.797147">
 <ele>95.0</ele>
 <time>2014-08-24T00:13:39Z</time>
 </trkpt>
 <trkpt lat="51.223744" lon="6.796935">
 <ele>95.0</ele>
 <time>2014-08-24T00:13:44Z</time>
 </trkpt>
 <trkpt lat="51.223782" lon="6.796753">
 <ele>101.0</ele>
 <time>2014-08-24T00:13:53Z</time>
 </trkpt>
 <trkpt lat="51.224013" lon="6.796292">
 <ele>112.0</ele>
 <time>2014-08-24T00:14:06Z</time>
 </trkpt>
 <trkpt lat="51.224136" lon="6.796152">
 <ele>111.0</ele>
 <time>2014-08-24T00:14:12Z</time>
 </trkpt>
 <trkpt lat="51.224342" lon="6.796061">
 <ele>98.0</ele>
 <time>2014-08-24T00:14:21Z</time>
 </trkpt>
 <trkpt lat="51.224606" lon="6.796196">
 <ele>96.0</ele>
 <time>2014-08-24T00:14:29Z</time>
 </trkpt>
 <trkpt lat="51.224748" lon="6.796293">
 <ele>86.0</ele>
 <time>2014-08-24T00:14:35Z</time>
 </trkpt>
 <trkpt lat="51.224956" lon="6.796305">
 <ele>91.0</ele>
 <time>2014-08-24T00:14:45Z</time>
 </trkpt>
 <trkpt lat="51.225157" lon="6.796418">
 <ele>96.0</ele>
 <time>2014-08-24T00:14:52Z</time>
 </trkpt>
 <trkpt lat="51.22542" lon="6.796508">
 <ele>94.0</ele>
 <time>2014-08-24T00:14:57Z</time>
 </trkpt>
 <trkpt lat="51.225707" lon="6.796522">
 <ele>86.0</ele>
 <time>2014-08-24T00:15:02Z</time>
 </trkpt>
 <trkpt lat="51.226064" lon="6.796761">
 <ele>74.0</ele>
 <time>2014-08-24T00:15:09Z</time>
 </trkpt>
 <trkpt lat="51.226292" lon="6.796825">
 <ele>68.0</ele>
 <time>2014-08-24T00:15:16Z</time>
 </trkpt>
 <trkpt lat="51.226642" lon="6.796925">
 <ele>63.0</ele>
 <time>2014-08-24T00:15:25Z</time>
 </trkpt>
 <trkpt lat="51.226851" lon="6.796918">
 <ele>60.0</ele>
 <time>2014-08-24T00:15:30Z</time>
 </trkpt>
 <trkpt lat="51.227159" lon="6.796932">
 <ele>64.0</ele>
 <time>2014-08-24T00:15:37Z</time>
 </trkpt>
 <trkpt lat="51.227391" lon="6.79688">
 <ele>66.0</ele>
 <time>2014-08-24T00:15:42Z</time>
 </trkpt>
 <trkpt lat="51.227656" lon="6.796727">
 <ele>76.0</ele>
 <time>2014-08-24T00:15:48Z</time>
 </trkpt>
 <trkpt lat="51.227898" lon="6.7966">
 <ele>77.0</ele>
 <time>2014-08-24T00:15:53Z</time>
 </trkpt>
 <trkpt lat="51.228183" lon="6.796522">
 <ele>88.0</ele>
 <time>2014-08-24T00:15:59Z</time>
 </trkpt>
 <trkpt lat="51.228498" lon="6.796554">
 <ele>94.0</ele>
 <time>2014-08-24T00:16:05Z</time>
 </trkpt>
 <trkpt lat="51.228651" lon="6.796494">
 <ele>93.0</ele>
 <time>2014-08-24T00:16:10Z</time>
 </trkpt>
 <trkpt lat="51.229051" lon="6.796378">
 <ele>93.0</ele>
 <time>2014-08-24T00:16:18Z</time>
 </trkpt>
 <trkpt lat="51.229386" lon="6.796388">
 <ele>93.0</ele>
 <time>2014-08-24T00:16:25Z</time>
 </trkpt>
 <trkpt lat="51.22948" lon="6.79656">
 <ele>95.0</ele>
 <time>2014-08-24T00:16:31Z</time>
 </trkpt>
 <trkpt lat="51.229465" lon="6.797115">
 <ele>91.0</ele>
 <time>2014-08-24T00:16:39Z</time>
 </trkpt>
 <trkpt lat="51.22964" lon="6.797656">
 <ele>97.0</ele>
 <time>2014-08-24T00:16:46Z</time>
 </trkpt>
 <trkpt lat="51.229732" lon="6.797906">
 <ele>91.0</ele>
 <time>2014-08-24T00:16:51Z</time>
 </trkpt>
 <trkpt lat="51.229708" lon="6.798304">
 <ele>87.0</ele>
 <time>2014-08-24T00:16:57Z</time>
 </trkpt>
 <trkpt lat="51.229468" lon="6.79842">
 <ele>89.0</ele>
 <time>2014-08-24T00:17:03Z</time>
 </trkpt>
 <trkpt lat="51.229254" lon="6.7985">
 <ele>87.0</ele>
 <time>2014-08-24T00:17:08Z</time>
 </trkpt>
 <trkpt lat="51.229254" lon="6.7985">
 <ele>87.0</ele>
 <time>2014-08-24T00:17:14Z</time>
 </trkpt>
 <trkpt lat="51.229254" lon="6.7985">
 <time>2014-08-24T00:17:14Z</time>
 </trkpt>
 </trkseg>
 <trkseg>
 <trkpt lat="51.229254" lon="6.7985">
 <time>2014-08-24T00:19:30Z</time>
 </trkpt>
 <trkpt lat="51.229254" lon="6.7985">
 <ele>87.0</ele>
 <time>2014-08-24T00:22:42Z</time>
 </trkpt>
 <trkpt lat="51.229737" lon="6.798578">
 <ele>101.0</ele>
 <time>2014-08-24T00:23:22Z</time>
 </trkpt>
 <trkpt lat="51.229737" lon="6.798578">
 <time>2014-08-24T00:23:30Z</time>
 </trkpt>
 </trkseg>
 <trkseg>
 <trkpt lat="51.229737" lon="6.798578">
 <time>2014-08-24T00:23:31Z</time>
 </trkpt>
 </trkseg>
 </trk>
</gpx>